createdAt,value
2022-12-03T00:01:49.279Z,16.60
2022-12-03T00:05:49.526Z,17.80
2022-12-03T00:09:48.720Z,24.30
2022-12-03T00:13:48.765Z,21.00
2022-12-03T00:17:48.160Z,23.50
2022-12-03T00:21:47.900Z,20.40
2022-12-03T00:25:47.638Z,17.70
2022-12-03T00:29:47.741Z,24.80
2022-12-03T00:33:47.642Z,24.40
2022-12-03T00:37:47.187Z,23.30
2022-12-03T00:41:46.479Z,21.40
2022-12-03T00:45:46.086Z,18.60
2022-12-03T00:49:45.064Z,15.80
2022-12-03T00:53:44.047Z,20.50
2022-12-03T00:57:43.026Z,21.00
2022-12-03T01:01:46.002Z,19.00
2022-12-03T01:05:45.421Z,19.10
2022-12-03T01:09:44.968Z,19.70
2022-12-03T01:13:43.768Z,43.10
2022-12-03T01:17:42.948Z,17.20
2022-12-03T01:21:47.630Z,21.60
2022-12-03T01:25:47.004Z,17.10
2022-12-03T01:29:45.747Z,15.70
2022-12-03T01:33:45.038Z,21.40
2022-12-03T01:37:44.252Z,18.30
2022-12-03T01:41:58.928Z,16.60
2022-12-03T01:45:57.986Z,16.50
2022-12-03T01:50:03.065Z,18.30
2022-12-03T01:54:03.423Z,18.40
2022-12-03T01:58:02.717Z,21.70
2022-12-03T02:02:13.427Z,22.70
2022-12-03T02:06:19.452Z,21.90
2022-12-03T02:10:25.661Z,22.90
2022-12-03T02:18:15.621Z,19.90
2022-12-03T02:21:51.663Z,28.80
2022-12-03T02:25:50.802Z,22.70
2022-12-03T02:29:52.002Z,20.80
2022-12-03T02:34:38.258Z,29.10
2022-12-03T02:37:47.695Z,27.70
2022-12-03T02:42:10.621Z,26.20
2022-12-03T02:46:14.181Z,22.60
2022-12-03T02:49:54.754Z,26.30
2022-12-03T02:54:00.202Z,19.40
2022-12-03T02:58:05.104Z,24.50
2022-12-03T03:02:12.164Z,30.30
2022-12-03T03:05:45.478Z,30.60
2022-12-03T03:09:28.920Z,37.00
2022-12-03T03:13:18.552Z,22.70
2022-12-03T03:24:06.364Z,45.80
2022-12-03T03:31:59.541Z,35.40
2022-12-03T03:35:26.745Z,24.60
2022-12-03T03:39:07.145Z,30.00
2022-12-03T03:51:25.610Z,30.00
2022-12-03T03:55:46.831Z,31.20
2022-12-03T03:59:05.408Z,31.90
2022-12-03T04:02:49.290Z,31.80
2022-12-03T04:06:23.950Z,30.90
2022-12-03T04:13:49.409Z,25.10
2022-12-03T04:22:44.963Z,29.00
2022-12-03T04:44:47.572Z,30.20
2022-12-03T04:48:49.604Z,27.90
2022-12-03T04:52:08.124Z,37.30
2022-12-03T04:56:20.103Z,23.60
2022-12-03T05:03:36.557Z,31.50
2022-12-03T05:07:39.227Z,32.80
2022-12-03T05:11:56.106Z,32.40
2022-12-03T05:15:39.891Z,30.50
2022-12-03T05:19:11.923Z,28.80
2022-12-03T05:22:57.052Z,39.80
2022-12-03T05:31:08.179Z,36.40
2022-12-03T05:34:19.128Z,29.60
2022-12-03T05:37:55.352Z,34.70
2022-12-03T05:42:13.187Z,33.90
2022-12-03T05:46:26.543Z,41.70
2022-12-03T05:50:28.352Z,34.50
2022-12-03T05:54:27.028Z,36.50
2022-12-03T05:58:26.291Z,40.60
2022-12-03T06:02:25.455Z,35.40
2022-12-03T06:06:25.223Z,40.20
2022-12-03T06:10:27.149Z,41.10
2022-12-03T06:14:26.827Z,34.20
2022-12-03T06:18:26.031Z,25.90
2022-12-03T06:22:38.686Z,37.10
2022-12-03T06:26:37.406Z,49.70
2022-12-03T06:30:37.179Z,35.90
2022-12-03T06:34:37.026Z,41.00
2022-12-03T06:38:36.009Z,86.20
2022-12-03T06:42:35.567Z,43.40
2022-12-03T06:46:34.978Z,39.20
2022-12-03T06:50:34.162Z,47.80
2022-12-03T06:54:33.374Z,41.80
2022-12-03T06:58:46.819Z,36.90
2022-12-03T07:02:48.290Z,63.90
2022-12-03T07:06:23.888Z,47.30
2022-12-03T07:10:23.588Z,32.60
2022-12-03T07:14:23.141Z,45.90
2022-12-03T07:18:23.161Z,36.50
2022-12-03T07:22:22.979Z,41.80
2022-12-03T07:26:22.708Z,55.90
2022-12-03T07:30:23.904Z,52.10
2022-12-03T07:34:23.506Z,44.50
2022-12-03T07:38:22.867Z,69.00
2022-12-03T07:42:22.007Z,50.20
2022-12-03T07:46:21.151Z,47.50
2022-12-03T07:50:21.060Z,40.00
2022-12-03T07:54:22.370Z,29.00
2022-12-03T07:58:21.486Z,37.70
2022-12-03T08:02:34.870Z,30.30
2022-12-03T08:06:35.226Z,78.10
2022-12-03T08:10:34.934Z,54.90
2022-12-03T08:14:36.249Z,56.20
2022-12-03T08:18:35.553Z,47.40
2022-12-03T08:22:34.808Z,51.90
2022-12-03T08:26:34.575Z,31.80
2022-12-03T08:30:34.361Z,48.80
2022-12-03T08:34:40.674Z,51.70
2022-12-03T08:38:40.609Z,38.50
2022-12-03T08:42:43.096Z,45.10
2022-12-03T08:46:42.093Z,72.10
2022-12-03T08:50:42.893Z,57.90
2022-12-03T08:54:43.687Z,50.60
2022-12-03T08:58:44.759Z,41.00
2022-12-03T09:02:48.826Z,43.70
2022-12-03T09:06:48.087Z,52.70
2022-12-03T09:10:47.575Z,55.20
2022-12-03T09:14:47.299Z,48.50
2022-12-03T09:18:48.920Z,54.10
2022-12-03T09:22:47.833Z,34.30
2022-12-03T09:26:47.241Z,47.10
2022-12-03T09:30:46.628Z,43.60
2022-12-03T09:34:46.707Z,52.50
2022-12-03T09:38:47.966Z,37.00
2022-12-03T09:42:48.130Z,41.50
2022-12-03T09:46:48.855Z,39.60
2022-12-03T09:50:49.402Z,48.10
2022-12-03T09:54:48.676Z,44.10
2022-12-03T09:59:02.869Z,47.20
2022-12-03T10:03:19.194Z,52.20
2022-12-03T10:07:18.353Z,38.90
2022-12-03T10:11:20.067Z,35.50
2022-12-03T10:15:22.008Z,63.10
2022-12-03T10:19:31.882Z,53.70
2022-12-03T10:23:32.068Z,70.80
2022-12-03T10:27:31.008Z,44.10
2022-12-03T10:31:37.044Z,42.20
2022-12-03T10:35:39.403Z,40.10
2022-12-03T10:40:01.933Z,56.50
2022-12-03T10:44:26.432Z,55.60
2022-12-03T10:48:27.578Z,62.50
2022-12-03T10:52:27.293Z,45.80
2022-12-03T10:56:27.698Z,38.10
2022-12-03T11:00:27.045Z,68.70
2022-12-03T11:04:34.307Z,60.70
2022-12-03T11:08:37.862Z,50.20
2022-12-03T11:12:37.842Z,52.60
2022-12-03T11:16:40.154Z,68.80
2022-12-03T11:20:45.873Z,65.30
2022-12-03T11:24:45.342Z,63.60
2022-12-03T11:28:48.010Z,42.80
2022-12-03T11:32:47.455Z,40.40
2022-12-03T11:37:11.727Z,42.10
2022-12-03T11:41:19.650Z,54.20
2022-12-03T11:45:37.542Z,58.20
2022-12-03T11:49:39.984Z,69.10
2022-12-03T11:53:40.638Z,41.50
2022-12-03T11:57:40.594Z,70.30
2022-12-03T12:01:42.167Z,75.20
2022-12-03T12:06:08.502Z,74.30
2022-12-03T12:10:41.788Z,75.00
2022-12-03T12:14:42.554Z,66.10
2022-12-03T12:18:45.903Z,78.50
2022-12-03T12:22:44.987Z,49.20
2022-12-03T12:26:51.654Z,69.60
2022-12-03T12:30:50.400Z,63.30
2022-12-03T12:34:53.494Z,60.80
2022-12-03T12:38:52.800Z,36.00
2022-12-03T12:42:58.129Z,56.90
2022-12-03T12:47:12.978Z,54.40
2022-12-03T12:51:13.866Z,37.20
2022-12-03T12:55:15.102Z,54.40
2022-12-03T12:59:20.705Z,30.10
2022-12-03T13:03:22.682Z,31.90
2022-12-03T13:07:22.673Z,25.90
2022-12-03T13:11:24.960Z,37.50
2022-12-03T13:15:47.454Z,19.40
2022-12-03T13:20:01.972Z,44.10
2022-12-03T13:24:31.308Z,45.70
2022-12-03T13:28:31.435Z,39.50
2022-12-03T13:32:37.231Z,32.20
2022-12-03T13:36:43.050Z,26.30
2022-12-03T13:40:42.615Z,26.20
2022-12-03T13:44:48.122Z,22.40
2022-12-03T13:48:47.940Z,23.80
2022-12-03T13:52:47.843Z,33.40
2022-12-03T13:56:48.017Z,39.00
2022-12-03T14:00:47.375Z,31.00
2022-12-03T14:04:46.675Z,37.70
2022-12-03T14:08:45.690Z,31.20
2022-12-03T14:12:44.953Z,30.90
2022-12-03T14:16:44.920Z,22.50
2022-12-03T14:20:45.592Z,27.00
2022-12-03T14:24:44.673Z,30.90
2022-12-03T14:28:44.602Z,35.90
2022-12-03T14:32:45.990Z,38.80
2022-12-03T14:36:21.891Z,31.80
2022-12-03T14:40:21.973Z,23.00
2022-12-03T14:44:24.433Z,24.40
2022-12-03T14:48:23.663Z,23.10
2022-12-03T14:52:23.242Z,24.40
2022-12-03T14:56:36.030Z,24.30
2022-12-03T15:00:35.367Z,23.40
2022-12-03T15:04:36.424Z,22.10
2022-12-03T15:08:12.220Z,67.80
2022-12-03T15:12:11.428Z,40.70
2022-12-03T15:16:10.495Z,31.00
2022-12-03T15:20:24.011Z,32.00
2022-12-03T15:24:37.250Z,36.20
2022-12-03T15:28:36.609Z,43.70
2022-12-03T15:32:36.405Z,38.10
2022-12-03T15:36:35.577Z,34.40
2022-12-03T15:40:35.216Z,56.50
2022-12-03T15:44:34.318Z,36.60
2022-12-03T15:48:34.362Z,42.50
2022-12-03T15:52:34.008Z,29.90
2022-12-03T15:56:37.747Z,24.50
2022-12-03T16:00:36.923Z,31.70
2022-12-03T16:04:50.311Z,29.10
2022-12-03T16:08:50.931Z,28.30
2022-12-03T16:12:28.590Z,31.70
2022-12-03T16:16:27.517Z,33.80
2022-12-03T16:20:27.787Z,22.30
2022-12-03T16:24:27.662Z,28.40
2022-12-03T16:28:26.972Z,27.10
2022-12-03T16:32:26.682Z,23.30
2022-12-03T16:36:26.107Z,29.90
2022-12-03T16:40:25.632Z,39.30
2022-12-03T16:44:32.974Z,43.40
2022-12-03T16:48:32.242Z,34.10
2022-12-03T16:52:31.530Z,29.70
2022-12-03T16:56:30.670Z,28.60
2022-12-03T17:00:30.069Z,28.80
2022-12-03T17:04:29.281Z,32.60
2022-12-03T17:08:28.575Z,35.30
2022-12-03T17:12:37.466Z,34.20
2022-12-03T17:16:47.770Z,39.00
2022-12-03T17:20:47.223Z,43.00
2022-12-03T17:24:47.011Z,34.50
2022-12-03T17:28:46.693Z,41.50
2022-12-03T17:32:46.078Z,47.30
2022-12-03T17:36:44.989Z,48.10
2022-12-03T17:40:43.878Z,42.60
2022-12-03T17:44:42.670Z,45.40
2022-12-03T17:48:42.847Z,40.30
2022-12-03T17:52:41.571Z,37.30
2022-12-03T17:56:43.692Z,34.20
2022-12-03T18:00:42.590Z,35.40
2022-12-03T18:04:42.318Z,41.90
2022-12-03T18:08:41.492Z,32.60
2022-12-03T18:12:59.812Z,46.10
2022-12-03T18:17:00.650Z,37.00
2022-12-03T18:21:04.499Z,37.40
2022-12-03T18:25:05.225Z,24.40
2022-12-03T18:29:04.714Z,39.90
2022-12-03T18:33:04.307Z,31.20
2022-12-03T18:37:03.578Z,39.30
2022-12-03T18:41:02.853Z,40.30
2022-12-03T18:45:02.417Z,36.10
2022-12-03T18:49:01.461Z,33.40
2022-12-03T18:53:03.090Z,34.10
2022-12-03T18:56:38.469Z,34.90
2022-12-03T19:00:38.966Z,36.10
2022-12-03T19:04:37.869Z,34.00
2022-12-03T19:08:37.076Z,42.40
2022-12-03T19:12:37.578Z,43.10
2022-12-03T19:16:39.316Z,40.90
2022-12-03T19:20:42.505Z,43.60
2022-12-03T19:24:42.172Z,49.30
2022-12-03T19:28:42.448Z,22.70
2022-12-03T19:32:42.088Z,45.30
2022-12-03T19:36:42.270Z,37.20
2022-12-03T19:40:42.212Z,40.30
2022-12-03T19:44:41.403Z,37.00
2022-12-03T19:48:41.865Z,39.30
2022-12-03T19:52:41.550Z,41.00
2022-12-03T19:56:41.208Z,35.90
2022-12-03T20:00:41.224Z,35.40
2022-12-03T20:04:41.524Z,40.40
2022-12-03T20:08:41.986Z,44.20
2022-12-03T20:12:41.422Z,48.30
2022-12-03T20:16:42.069Z,39.10
2022-12-03T20:20:41.394Z,43.90
2022-12-03T20:24:41.323Z,42.60
2022-12-03T20:28:42.229Z,38.30
2022-12-03T20:32:18.729Z,39.80
2022-12-03T20:36:32.890Z,34.50
2022-12-03T20:40:36.337Z,48.20
2022-12-03T20:44:37.824Z,46.80
2022-12-03T20:48:38.131Z,45.90
2022-12-03T20:52:37.469Z,43.70
2022-12-03T20:56:42.393Z,45.80
2022-12-03T21:00:41.796Z,47.30
2022-12-03T21:04:41.033Z,32.50
2022-12-03T21:08:42.853Z,35.10
2022-12-03T21:12:42.849Z,41.40
2022-12-03T21:17:07.072Z,48.60
2022-12-03T21:21:07.105Z,38.70
2022-12-03T21:25:07.004Z,47.60
2022-12-03T21:29:06.570Z,55.00
2022-12-03T21:33:06.805Z,43.40
2022-12-03T21:37:06.121Z,45.50
2022-12-03T21:41:24.515Z,44.80
2022-12-03T21:44:43.277Z,41.40
2022-12-03T21:48:43.727Z,54.90
2022-12-03T21:52:43.085Z,37.30
2022-12-03T21:56:43.238Z,42.50
2022-12-03T22:00:56.506Z,40.80
2022-12-03T22:04:56.205Z,49.40
2022-12-03T22:08:56.104Z,47.20
2022-12-03T22:12:55.549Z,41.30
2022-12-03T22:16:55.030Z,39.60
2022-12-03T22:20:54.742Z,49.30
2022-12-03T22:25:12.713Z,48.30
2022-12-03T22:28:33.036Z,46.20
2022-12-03T22:32:32.495Z,49.70
2022-12-03T22:36:32.202Z,41.60
2022-12-03T22:40:31.743Z,47.00
2022-12-03T22:44:31.565Z,48.80
2022-12-03T22:48:33.897Z,38.00
2022-12-03T22:52:34.029Z,49.20
2022-12-03T22:56:34.043Z,49.40
2022-12-03T23:00:36.993Z,52.20
2022-12-03T23:04:36.846Z,47.40
2022-12-03T23:08:36.491Z,42.90
2022-12-03T23:12:36.944Z,52.70
2022-12-03T23:16:36.790Z,56.50
2022-12-03T23:20:48.016Z,44.40
2022-12-03T23:24:47.352Z,46.50
2022-12-03T23:28:47.306Z,43.10
2022-12-03T23:32:46.273Z,43.30
2022-12-03T23:36:46.128Z,56.20
2022-12-03T23:40:48.197Z,42.50
2022-12-03T23:44:48.115Z,41.40
2022-12-03T23:48:47.725Z,41.60
2022-12-03T23:52:47.269Z,38.60
2022-12-03T23:56:46.582Z,46.80
